sensor_id;sensor_type;location;lat;lon;timestamp;P1;durP1;ratioP1;P2;durP2;ratioP2
12482;SDS011;6306;47.134;15.344;2023-01-13T00:02:00;10.47;;;6.13;;
12482;SDS011;6306;47.134;15.344;2023-01-13T00:04:26;6.30;;;4.47;;
12482;SDS011;6306;47.134;15.344;2023-01-13T00:06:52;9.40;;;4.97;;
12482;SDS011;6306;47.134;15.344;2023-01-13T00:09:18;7.70;;;5.13;;
12482;SDS011;6306;47.134;15.344;2023-01-13T00:11:44;7.10;;;4.63;;
12482;SDS011;6306;47.134;15.344;2023-01-13T00:14:11;9.70;;;5.63;;
12482;SDS011;6306;47.134;15.344;2023-01-13T00:16:37;7.40;;;5.43;;
12482;SDS011;6306;47.134;15.344;2023-01-13T00:19:03;7.93;;;5.10;;
12482;SDS011;6306;47.134;15.344;2023-01-13T00:21:30;5.93;;;4.30;;
12482;SDS011;6306;47.134;15.344;2023-01-13T00:23:56;12.73;;;4.73;;
12482;SDS011;6306;47.134;15.344;2023-01-13T00:26:23;9.90;;;5.40;;
12482;SDS011;6306;47.134;15.344;2023-01-13T00:28:50;6.27;;;4.20;;
12482;SDS011;6306;47.134;15.344;2023-01-13T00:31:20;7.67;;;4.50;;
12482;SDS011;6306;47.134;15.344;2023-01-13T00:33:46;10.83;;;5.60;;
12482;SDS011;6306;47.134;15.344;2023-01-13T00:36:13;7.43;;;4.20;;
12482;SDS011;6306;47.134;15.344;2023-01-13T00:38:40;5.83;;;3.70;;
12482;SDS011;6306;47.134;15.344;2023-01-13T00:41:08;6.10;;;4.70;;
12482;SDS011;6306;47.134;15.344;2023-01-13T00:43:34;5.50;;;4.80;;
12482;SDS011;6306;47.134;15.344;2023-01-13T00:46:01;7.50;;;4.50;;
12482;SDS011;6306;47.134;15.344;2023-01-13T00:48:27;12.57;;;6.00;;
12482;SDS011;6306;47.134;15.344;2023-01-13T00:51:03;7.17;;;4.83;;
12482;SDS011;6306;47.134;15.344;2023-01-13T00:53:33;6.83;;;4.93;;
12482;SDS011;6306;47.134;15.344;2023-01-13T00:56:22;8.60;;;4.40;;
12482;SDS011;6306;47.134;15.344;2023-01-13T00:58:46;4.70;;;4.20;;
12482;SDS011;6306;47.134;15.344;2023-01-13T01:01:14;8.00;;;4.00;;
12482;SDS011;6306;47.134;15.344;2023-01-13T01:03:40;8.40;;;4.53;;
12482;SDS011;6306;47.134;15.344;2023-01-13T01:06:11;5.67;;;4.20;;
12482;SDS011;6306;47.134;15.344;2023-01-13T01:08:37;5.50;;;4.40;;
12482;SDS011;6306;47.134;15.344;2023-01-13T01:11:04;5.03;;;3.73;;
12482;SDS011;6306;47.134;15.344;2023-01-13T01:13:30;7.67;;;4.43;;
12482;SDS011;6306;47.134;15.344;2023-01-13T01:15:57;6.00;;;4.70;;
12482;SDS011;6306;47.134;15.344;2023-01-13T01:18:23;6.23;;;4.50;;
12482;SDS011;6306;47.134;15.344;2023-01-13T01:20:49;5.87;;;4.77;;
12482;SDS011;6306;47.134;15.344;2023-01-13T01:23:15;5.23;;;4.00;;
12482;SDS011;6306;47.134;15.344;2023-01-13T01:25:41;4.63;;;3.50;;
12482;SDS011;6306;47.134;15.344;2023-01-13T01:28:07;6.07;;;4.00;;
12482;SDS011;6306;47.134;15.344;2023-01-13T01:30:33;9.33;;;5.10;;
12482;SDS011;6306;47.134;15.344;2023-01-13T01:32:59;9.80;;;5.77;;
12482;SDS011;6306;47.134;15.344;2023-01-13T01:35:27;9.40;;;4.40;;
12482;SDS011;6306;47.134;15.344;2023-01-13T01:37:53;6.03;;;3.90;;
12482;SDS011;6306;47.134;15.344;2023-01-13T01:40:19;6.90;;;4.00;;
12482;SDS011;6306;47.134;15.344;2023-01-13T01:42:45;6.50;;;4.07;;
12482;SDS011;6306;47.134;15.344;2023-01-13T01:45:29;8.77;;;4.80;;
12482;SDS011;6306;47.134;15.344;2023-01-13T01:47:57;7.97;;;4.57;;
12482;SDS011;6306;47.134;15.344;2023-01-13T01:50:24;5.10;;;3.53;;
12482;SDS011;6306;47.134;15.344;2023-01-13T01:53:13;7.40;;;4.57;;
12482;SDS011;6306;47.134;15.344;2023-01-13T01:55:37;5.53;;;3.80;;
12482;SDS011;6306;47.134;15.344;2023-01-13T01:58:12;7.30;;;4.53;;
12482;SDS011;6306;47.134;15.344;2023-01-13T02:00:40;6.17;;;4.97;;
12482;SDS011;6306;47.134;15.344;2023-01-13T02:03:06;6.10;;;3.80;;
12482;SDS011;6306;47.134;15.344;2023-01-13T02:05:33;7.30;;;3.73;;
12482;SDS011;6306;47.134;15.344;2023-01-13T02:08:00;8.03;;;4.20;;
12482;SDS011;6306;47.134;15.344;2023-01-13T02:10:26;5.90;;;4.30;;
12482;SDS011;6306;47.134;15.344;2023-01-13T02:12:54;5.47;;;4.47;;
12482;SDS011;6306;47.134;15.344;2023-01-13T02:15:22;4.80;;;3.43;;
12482;SDS011;6306;47.134;15.344;2023-01-13T02:31:56;8.50;;;3.93;;
12482;SDS011;6306;47.134;15.344;2023-01-13T02:34:29;4.93;;;3.27;;
12482;SDS011;6306;47.134;15.344;2023-01-13T02:37:10;3.83;;;3.40;;
12482;SDS011;6306;47.134;15.344;2023-01-13T02:39:45;5.90;;;4.00;;
12482;SDS011;6306;47.134;15.344;2023-01-13T02:42:35;6.43;;;4.17;;
12482;SDS011;6306;47.134;15.344;2023-01-13T02:45:18;5.77;;;4.03;;
12482;SDS011;6306;47.134;15.344;2023-01-13T02:47:48;6.27;;;3.30;;
12482;SDS011;6306;47.134;15.344;2023-01-13T02:50:20;4.73;;;3.97;;
12482;SDS011;6306;47.134;15.344;2023-01-13T02:52:49;10.03;;;4.33;;
12482;SDS011;6306;47.134;15.344;2023-01-13T02:55:18;5.30;;;3.30;;
12482;SDS011;6306;47.134;15.344;2023-01-13T02:57:45;6.97;;;4.13;;
12482;SDS011;6306;47.134;15.344;2023-01-13T03:00:13;8.40;;;5.07;;
12482;SDS011;6306;47.134;15.344;2023-01-13T03:02:40;6.27;;;4.40;;
12482;SDS011;6306;47.134;15.344;2023-01-13T03:05:06;7.47;;;4.50;;
12482;SDS011;6306;47.134;15.344;2023-01-13T03:12:49;5.73;;;3.67;;
12482;SDS011;6306;47.134;15.344;2023-01-13T03:20:53;4.90;;;3.13;;
12482;SDS011;6306;47.134;15.344;2023-01-13T03:23:54;7.00;;;3.70;;
12482;SDS011;6306;47.134;15.344;2023-01-13T03:26:16;5.97;;;4.30;;
12482;SDS011;6306;47.134;15.344;2023-01-13T03:28:45;6.00;;;4.13;;
12482;SDS011;6306;47.134;15.344;2023-01-13T03:31:14;4.87;;;3.57;;
12482;SDS011;6306;47.134;15.344;2023-01-13T03:33:45;7.07;;;3.53;;
12482;SDS011;6306;47.134;15.344;2023-01-13T03:36:13;5.83;;;4.33;;
12482;SDS011;6306;47.134;15.344;2023-01-13T03:38:45;8.33;;;3.07;;
12482;SDS011;6306;47.134;15.344;2023-01-13T03:41:14;7.67;;;4.10;;
12482;SDS011;6306;47.134;15.344;2023-01-13T03:43:47;6.97;;;3.93;;
12482;SDS011;6306;47.134;15.344;2023-01-13T03:49:12;5.33;;;3.63;;
12482;SDS011;6306;47.134;15.344;2023-01-13T03:51:41;4.03;;;3.23;;
12482;SDS011;6306;47.134;15.344;2023-01-13T03:54:09;5.50;;;3.07;;
12482;SDS011;6306;47.134;15.344;2023-01-13T03:59:02;5.50;;;3.50;;
12482;SDS011;6306;47.134;15.344;2023-01-13T04:01:34;6.07;;;3.50;;
12482;SDS011;6306;47.134;15.344;2023-01-13T04:06:30;4.07;;;2.67;;
12482;SDS011;6306;47.134;15.344;2023-01-13T04:09:02;4.50;;;3.20;;
12482;SDS011;6306;47.134;15.344;2023-01-13T04:11:37;4.90;;;2.20;;
12482;SDS011;6306;47.134;15.344;2023-01-13T04:14:05;3.77;;;2.00;;
12482;SDS011;6306;47.134;15.344;2023-01-13T04:16:33;3.27;;;2.03;;
12482;SDS011;6306;47.134;15.344;2023-01-13T04:18:59;7.50;;;4.00;;
12482;SDS011;6306;47.134;15.344;2023-01-13T04:21:25;4.00;;;3.20;;
12482;SDS011;6306;47.134;15.344;2023-01-13T04:23:51;4.53;;;2.90;;
12482;SDS011;6306;47.134;15.344;2023-01-13T04:26:17;5.27;;;2.73;;
12482;SDS011;6306;47.134;15.344;2023-01-13T04:28:44;5.57;;;3.40;;
12482;SDS011;6306;47.134;15.344;2023-01-13T04:31:10;5.47;;;2.60;;
12482;SDS011;6306;47.134;15.344;2023-01-13T04:33:36;11.10;;;5.27;;
12482;SDS011;6306;47.134;15.344;2023-01-13T04:36:02;4.07;;;3.43;;
12482;SDS011;6306;47.134;15.344;2023-01-13T04:38:28;5.40;;;3.07;;
12482;SDS011;6306;47.134;15.344;2023-01-13T04:40:54;4.60;;;3.60;;
12482;SDS011;6306;47.134;15.344;2023-01-13T04:43:20;3.77;;;2.47;;
12482;SDS011;6306;47.134;15.344;2023-01-13T04:45:46;5.17;;;3.30;;
12482;SDS011;6306;47.134;15.344;2023-01-13T04:48:12;6.60;;;3.20;;
12482;SDS011;6306;47.134;15.344;2023-01-13T04:50:38;4.03;;;2.73;;
12482;SDS011;6306;47.134;15.344;2023-01-13T04:53:05;7.63;;;3.20;;
12482;SDS011;6306;47.134;15.344;2023-01-13T04:55:31;17.63;;;2.73;;
12482;SDS011;6306;47.134;15.344;2023-01-13T04:58:01;6.80;;;3.13;;
12482;SDS011;6306;47.134;15.344;2023-01-13T05:00:27;4.00;;;2.40;;
12482;SDS011;6306;47.134;15.344;2023-01-13T05:02:53;4.07;;;3.00;;
12482;SDS011;6306;47.134;15.344;2023-01-13T05:05:19;5.30;;;2.73;;
12482;SDS011;6306;47.134;15.344;2023-01-13T05:07:45;5.07;;;4.30;;
12482;SDS011;6306;47.134;15.344;2023-01-13T05:10:11;13.90;;;6.33;;
12482;SDS011;6306;47.134;15.344;2023-01-13T05:12:37;25.73;;;11.93;;
12482;SDS011;6306;47.134;15.344;2023-01-13T05:15:22;24.87;;;13.10;;
12482;SDS011;6306;47.134;15.344;2023-01-13T05:18:07;18.67;;;9.43;;
12482;SDS011;6306;47.134;15.344;2023-01-13T05:20:33;9.00;;;5.70;;
12482;SDS011;6306;47.134;15.344;2023-01-13T05:22:59;11.90;;;6.10;;
12482;SDS011;6306;47.134;15.344;2023-01-13T05:25:44;11.40;;;6.73;;
12482;SDS011;6306;47.134;15.344;2023-01-13T05:28:11;9.10;;;5.40;;
12482;SDS011;6306;47.134;15.344;2023-01-13T05:30:41;12.47;;;6.83;;
12482;SDS011;6306;47.134;15.344;2023-01-13T05:33:09;12.00;;;5.73;;
12482;SDS011;6306;47.134;15.344;2023-01-13T05:35:41;7.53;;;4.47;;
12482;SDS011;6306;47.134;15.344;2023-01-13T05:38:08;7.17;;;4.83;;
12482;SDS011;6306;47.134;15.344;2023-01-13T05:40:34;5.93;;;4.50;;
12482;SDS011;6306;47.134;15.344;2023-01-13T05:43:19;7.70;;;4.70;;
12482;SDS011;6306;47.134;15.344;2023-01-13T05:45:58;13.60;;;6.20;;
12482;SDS011;6306;47.134;15.344;2023-01-13T05:48:57;6.00;;;4.30;;
12482;SDS011;6306;47.134;15.344;2023-01-13T05:51:17;8.30;;;4.70;;
12482;SDS011;6306;47.134;15.344;2023-01-13T05:53:46;6.57;;;3.93;;
12482;SDS011;6306;47.134;15.344;2023-01-13T05:56:12;9.80;;;5.53;;
12482;SDS011;6306;47.134;15.344;2023-01-13T05:58:38;7.80;;;5.20;;
12482;SDS011;6306;47.134;15.344;2023-01-13T06:01:05;6.40;;;4.60;;
12482;SDS011;6306;47.134;15.344;2023-01-13T06:03:31;5.20;;;3.43;;
12482;SDS011;6306;47.134;15.344;2023-01-13T06:05:58;13.10;;;5.10;;
12482;SDS011;6306;47.134;15.344;2023-01-13T06:08:26;5.73;;;3.70;;
12482;SDS011;6306;47.134;15.344;2023-01-13T06:10:52;6.50;;;4.00;;
12482;SDS011;6306;47.134;15.344;2023-01-13T06:13:18;6.70;;;4.60;;
12482;SDS011;6306;47.134;15.344;2023-01-13T06:15:44;6.83;;;4.27;;
12482;SDS011;6306;47.134;15.344;2023-01-13T06:18:10;6.00;;;4.10;;
12482;SDS011;6306;47.134;15.344;2023-01-13T06:20:36;11.47;;;6.50;;
12482;SDS011;6306;47.134;15.344;2023-01-13T06:23:03;10.57;;;6.20;;
12482;SDS011;6306;47.134;15.344;2023-01-13T06:25:32;9.30;;;5.70;;
12482;SDS011;6306;47.134;15.344;2023-01-13T06:28:01;9.23;;;5.13;;
12482;SDS011;6306;47.134;15.344;2023-01-13T06:30:28;9.43;;;5.57;;
12482;SDS011;6306;47.134;15.344;2023-01-13T06:32:56;9.60;;;5.00;;
12482;SDS011;6306;47.134;15.344;2023-01-13T06:35:26;10.93;;;5.60;;
12482;SDS011;6306;47.134;15.344;2023-01-13T06:37:53;9.40;;;7.50;;
12482;SDS011;6306;47.134;15.344;2023-01-13T06:40:21;21.07;;;7.47;;
12482;SDS011;6306;47.134;15.344;2023-01-13T06:42:47;18.43;;;10.43;;
12482;SDS011;6306;47.134;15.344;2023-01-13T06:45:32;22.73;;;10.63;;
12482;SDS011;6306;47.134;15.344;2023-01-13T06:47:59;26.00;;;13.87;;
12482;SDS011;6306;47.134;15.344;2023-01-13T06:50:25;24.07;;;12.80;;
12482;SDS011;6306;47.134;15.344;2023-01-13T06:52:52;37.37;;;15.00;;
12482;SDS011;6306;47.134;15.344;2023-01-13T06:55:18;41.83;;;16.77;;
12482;SDS011;6306;47.134;15.344;2023-01-13T07:00:13;31.63;;;15.13;;
12482;SDS011;6306;47.134;15.344;2023-01-13T07:02:40;44.80;;;19.47;;
12482;SDS011;6306;47.134;15.344;2023-01-13T07:05:06;37.37;;;16.70;;
12482;SDS011;6306;47.134;15.344;2023-01-13T07:07:32;30.80;;;15.13;;
12482;SDS011;6306;47.134;15.344;2023-01-13T07:09:58;26.40;;;13.20;;
12482;SDS011;6306;47.134;15.344;2023-01-13T07:12:24;30.00;;;15.53;;
12482;SDS011;6306;47.134;15.344;2023-01-13T07:14:50;23.63;;;11.67;;
12482;SDS011;6306;47.134;15.344;2023-01-13T07:17:35;22.47;;;11.93;;
12482;SDS011;6306;47.134;15.344;2023-01-13T07:20:01;26.40;;;13.30;;
12482;SDS011;6306;47.134;15.344;2023-01-13T07:22:27;31.83;;;13.67;;
12482;SDS011;6306;47.134;15.344;2023-01-13T07:24:53;27.83;;;12.97;;
12482;SDS011;6306;47.134;15.344;2023-01-13T07:27:19;26.10;;;12.40;;
12482;SDS011;6306;47.134;15.344;2023-01-13T07:29:45;21.77;;;12.70;;
12482;SDS011;6306;47.134;15.344;2023-01-13T07:32:11;25.50;;;11.03;;
12482;SDS011;6306;47.134;15.344;2023-01-13T07:34:38;22.27;;;12.20;;
12482;SDS011;6306;47.134;15.344;2023-01-13T07:37:04;20.47;;;10.97;;
12482;SDS011;6306;47.134;15.344;2023-01-13T07:39:30;18.20;;;10.07;;
12482;SDS011;6306;47.134;15.344;2023-01-13T07:41:56;16.57;;;9.87;;
12482;SDS011;6306;47.134;15.344;2023-01-13T07:44:41;18.93;;;10.10;;
12482;SDS011;6306;47.134;15.344;2023-01-13T07:47:07;22.77;;;11.77;;
12482;SDS011;6306;47.134;15.344;2023-01-13T07:49:35;22.30;;;13.43;;
12482;SDS011;6306;47.134;15.344;2023-01-13T07:52:02;24.70;;;12.37;;
12482;SDS011;6306;47.134;15.344;2023-01-13T07:54:28;25.47;;;12.20;;
12482;SDS011;6306;47.134;15.344;2023-01-13T07:56:54;29.77;;;13.57;;
12482;SDS011;6306;47.134;15.344;2023-01-13T07:59:20;22.20;;;12.43;;
12482;SDS011;6306;47.134;15.344;2023-01-13T08:01:46;23.17;;;13.50;;
12482;SDS011;6306;47.134;15.344;2023-01-13T08:04:12;19.30;;;14.17;;
12482;SDS011;6306;47.134;15.344;2023-01-13T08:06:39;23.17;;;14.17;;
12482;SDS011;6306;47.134;15.344;2023-01-13T08:09:05;23.90;;;12.10;;
12482;SDS011;6306;47.134;15.344;2023-01-13T08:11:31;30.30;;;16.00;;
12482;SDS011;6306;47.134;15.344;2023-01-13T08:13:57;37.53;;;18.00;;
12482;SDS011;6306;47.134;15.344;2023-01-13T08:16:24;41.60;;;16.57;;
12482;SDS011;6306;47.134;15.344;2023-01-13T08:18:50;28.87;;;14.33;;
12482;SDS011;6306;47.134;15.344;2023-01-13T08:21:16;25.53;;;12.60;;
12482;SDS011;6306;47.134;15.344;2023-01-13T08:23:43;24.20;;;13.13;;
12482;SDS011;6306;47.134;15.344;2023-01-13T08:26:10;22.03;;;12.10;;
12482;SDS011;6306;47.134;15.344;2023-01-13T08:28:37;18.67;;;10.47;;
12482;SDS011;6306;47.134;15.344;2023-01-13T08:31:08;22.70;;;13.20;;
12482;SDS011;6306;47.134;15.344;2023-01-13T08:33:35;23.97;;;12.40;;
12482;SDS011;6306;47.134;15.344;2023-01-13T08:36:05;19.50;;;11.83;;
12482;SDS011;6306;47.134;15.344;2023-01-13T08:38:31;17.27;;;12.27;;
12482;SDS011;6306;47.134;15.344;2023-01-13T08:40:58;21.63;;;13.40;;
12482;SDS011;6306;47.134;15.344;2023-01-13T08:43:24;16.67;;;10.87;;
12482;SDS011;6306;47.134;15.344;2023-01-13T08:45:57;16.40;;;12.30;;
12482;SDS011;6306;47.134;15.344;2023-01-13T08:48:24;20.70;;;12.30;;
12482;SDS011;6306;47.134;15.344;2023-01-13T08:50:50;26.20;;;15.83;;
12482;SDS011;6306;47.134;15.344;2023-01-13T08:53:17;21.77;;;13.13;;
12482;SDS011;6306;47.134;15.344;2023-01-13T08:55:43;23.77;;;13.70;;
12482;SDS011;6306;47.134;15.344;2023-01-13T08:58:09;11.43;;;6.00;;
12482;SDS011;6306;47.134;15.344;2023-01-13T09:00:35;16.00;;;6.00;;
12482;SDS011;6306;47.134;15.344;2023-01-13T09:03:01;7.03;;;3.43;;
12482;SDS011;6306;47.134;15.344;2023-01-13T09:05:28;7.30;;;3.07;;
12482;SDS011;6306;47.134;15.344;2023-01-13T09:07:54;9.30;;;5.23;;
12482;SDS011;6306;47.134;15.344;2023-01-13T09:10:20;5.47;;;3.63;;
12482;SDS011;6306;47.134;15.344;2023-01-13T09:12:46;5.20;;;4.03;;
12482;SDS011;6306;47.134;15.344;2023-01-13T09:15:31;10.07;;;6.00;;
12482;SDS011;6306;47.134;15.344;2023-01-13T09:17:57;7.23;;;4.73;;
12482;SDS011;6306;47.134;15.344;2023-01-13T09:20:24;9.57;;;4.13;;
12482;SDS011;6306;47.134;15.344;2023-01-13T09:22:50;15.27;;;5.40;;
12482;SDS011;6306;47.134;15.344;2023-01-13T09:25:16;9.60;;;5.13;;
12482;SDS011;6306;47.134;15.344;2023-01-13T09:27:42;8.90;;;5.30;;
12482;SDS011;6306;47.134;15.344;2023-01-13T09:30:08;17.57;;;7.30;;
12482;SDS011;6306;47.134;15.344;2023-01-13T09:32:34;21.13;;;6.47;;
12482;SDS011;6306;47.134;15.344;2023-01-13T09:35:02;10.40;;;5.07;;
12482;SDS011;6306;47.134;15.344;2023-01-13T09:37:29;9.87;;;4.10;;
12482;SDS011;6306;47.134;15.344;2023-01-13T09:39:55;13.03;;;5.23;;
12482;SDS011;6306;47.134;15.344;2023-01-13T09:47:49;8.97;;;5.20;;
12482;SDS011;6306;47.134;15.344;2023-01-13T09:51:04;6.50;;;4.13;;
12482;SDS011;6306;47.134;15.344;2023-01-13T09:53:11;12.53;;;4.90;;
12482;SDS011;6306;47.134;15.344;2023-01-13T09:55:38;12.60;;;5.13;;
12482;SDS011;6306;47.134;15.344;2023-01-13T09:58:10;8.53;;;4.30;;
12482;SDS011;6306;47.134;15.344;2023-01-13T10:00:44;6.30;;;4.10;;
12482;SDS011;6306;47.134;15.344;2023-01-13T10:03:22;13.37;;;4.90;;
12482;SDS011;6306;47.134;15.344;2023-01-13T10:08:22;12.43;;;5.20;;
12482;SDS011;6306;47.134;15.344;2023-01-13T10:10:50;18.40;;;7.43;;
12482;SDS011;6306;47.134;15.344;2023-01-13T10:13:20;13.63;;;7.43;;
12482;SDS011;6306;47.134;15.344;2023-01-13T10:15:53;11.70;;;6.60;;
12482;SDS011;6306;47.134;15.344;2023-01-13T10:18:25;11.90;;;6.57;;
12482;SDS011;6306;47.134;15.344;2023-01-13T10:21:06;13.80;;;6.77;;
12482;SDS011;6306;47.134;15.344;2023-01-13T10:28:29;6.67;;;4.30;;
12482;SDS011;6306;47.134;15.344;2023-01-13T10:30:55;6.63;;;4.10;;
12482;SDS011;6306;47.134;15.344;2023-01-13T10:38:47;15.37;;;5.47;;
12482;SDS011;6306;47.134;15.344;2023-01-13T10:46:29;7.20;;;3.50;;
12482;SDS011;6306;47.134;15.344;2023-01-13T10:48:59;11.13;;;4.47;;
12482;SDS011;6306;47.134;15.344;2023-01-13T10:56:37;6.77;;;4.13;;
12482;SDS011;6306;47.134;15.344;2023-01-13T11:02:02;10.90;;;3.97;;
12482;SDS011;6306;47.134;15.344;2023-01-13T11:04:36;11.20;;;3.13;;
12482;SDS011;6306;47.134;15.344;2023-01-13T11:07:03;6.93;;;4.23;;
12482;SDS011;6306;47.134;15.344;2023-01-13T11:09:30;15.33;;;5.27;;
12482;SDS011;6306;47.134;15.344;2023-01-13T11:11:56;5.97;;;4.17;;
12482;SDS011;6306;47.134;15.344;2023-01-13T11:14:28;7.37;;;3.10;;
12482;SDS011;6306;47.134;15.344;2023-01-13T11:17:02;8.00;;;2.40;;
12482;SDS011;6306;47.134;15.344;2023-01-13T11:19:33;9.63;;;4.50;;
12482;SDS011;6306;47.134;15.344;2023-01-13T11:22:04;4.47;;;2.63;;
12482;SDS011;6306;47.134;15.344;2023-01-13T11:24:39;5.70;;;3.20;;
12482;SDS011;6306;47.134;15.344;2023-01-13T11:27:32;10.80;;;4.73;;
12482;SDS011;6306;47.134;15.344;2023-01-13T11:32:34;3.57;;;2.50;;
12482;SDS011;6306;47.134;15.344;2023-01-13T11:35:03;8.97;;;3.30;;
12482;SDS011;6306;47.134;15.344;2023-01-13T11:37:35;5.50;;;2.30;;
12482;SDS011;6306;47.134;15.344;2023-01-13T11:40:08;5.03;;;2.70;;
12482;SDS011;6306;47.134;15.344;2023-01-13T11:42:45;4.03;;;2.50;;
12482;SDS011;6306;47.134;15.344;2023-01-13T11:45:17;7.10;;;2.87;;
12482;SDS011;6306;47.134;15.344;2023-01-13T11:47:44;3.27;;;2.80;;
12482;SDS011;6306;47.134;15.344;2023-01-13T11:50:13;7.33;;;3.53;;
12482;SDS011;6306;47.134;15.344;2023-01-13T12:15:28;3.70;;;2.47;;
12482;SDS011;6306;47.134;15.344;2023-01-13T12:18:17;11.83;;;3.07;;
12482;SDS011;6306;47.134;15.344;2023-01-13T12:23:23;5.13;;;2.87;;
12482;SDS011;6306;47.134;15.344;2023-01-13T12:25:58;4.00;;;2.83;;
12482;SDS011;6306;47.134;15.344;2023-01-13T12:28:26;5.90;;;2.80;;
12482;SDS011;6306;47.134;15.344;2023-01-13T12:30:55;3.83;;;2.07;;
12482;SDS011;6306;47.134;15.344;2023-01-13T12:41:05;3.40;;;3.00;;
12482;SDS011;6306;47.134;15.344;2023-01-13T12:43:35;5.80;;;3.37;;
12482;SDS011;6306;47.134;15.344;2023-01-13T12:53:50;5.77;;;2.40;;
12482;SDS011;6306;47.134;15.344;2023-01-13T12:59:32;3.33;;;2.00;;
12482;SDS011;6306;47.134;15.344;2023-01-13T13:01:51;6.53;;;2.83;;
12482;SDS011;6306;47.134;15.344;2023-01-13T13:04:46;4.40;;;2.33;;
12482;SDS011;6306;47.134;15.344;2023-01-13T13:09:59;8.43;;;3.67;;
12482;SDS011;6306;47.134;15.344;2023-01-13T13:15:33;6.27;;;3.63;;
12482;SDS011;6306;47.134;15.344;2023-01-13T13:18:32;4.80;;;2.70;;
12482;SDS011;6306;47.134;15.344;2023-01-13T13:28:40;4.57;;;2.77;;
12482;SDS011;6306;47.134;15.344;2023-01-13T13:39:16;6.00;;;3.33;;
12482;SDS011;6306;47.134;15.344;2023-01-13T13:42:18;7.03;;;3.87;;
12482;SDS011;6306;47.134;15.344;2023-01-13T13:45:16;2.60;;;2.10;;
12482;SDS011;6306;47.134;15.344;2023-01-13T13:48:21;7.80;;;3.30;;
12482;SDS011;6306;47.134;15.344;2023-01-13T13:50:48;7.00;;;3.13;;
12482;SDS011;6306;47.134;15.344;2023-01-13T13:53:14;9.33;;;3.33;;
12482;SDS011;6306;47.134;15.344;2023-01-13T13:55:54;11.53;;;3.80;;
12482;SDS011;6306;47.134;15.344;2023-01-13T13:58:21;8.20;;;3.37;;
12482;SDS011;6306;47.134;15.344;2023-01-13T14:00:50;4.97;;;3.00;;
12482;SDS011;6306;47.134;15.344;2023-01-13T14:03:23;4.70;;;2.30;;
12482;SDS011;6306;47.134;15.344;2023-01-13T14:05:54;8.73;;;1.90;;
12482;SDS011;6306;47.134;15.344;2023-01-13T14:08:21;4.47;;;2.10;;
12482;SDS011;6306;47.134;15.344;2023-01-13T14:10:47;4.60;;;1.70;;
12482;SDS011;6306;47.134;15.344;2023-01-13T14:13:14;4.33;;;1.90;;
12482;SDS011;6306;47.134;15.344;2023-01-13T14:15:40;4.80;;;2.53;;
12482;SDS011;6306;47.134;15.344;2023-01-13T14:18:11;4.63;;;1.70;;
12482;SDS011;6306;47.134;15.344;2023-01-13T14:20:38;6.13;;;2.10;;
12482;SDS011;6306;47.134;15.344;2023-01-13T14:23:04;4.87;;;2.27;;
12482;SDS011;6306;47.134;15.344;2023-01-13T14:27:58;3.33;;;1.30;;
12482;SDS011;6306;47.134;15.344;2023-01-13T14:30:25;9.80;;;2.23;;
12482;SDS011;6306;47.134;15.344;2023-01-13T14:32:51;5.70;;;2.83;;
12482;SDS011;6306;47.134;15.344;2023-01-13T14:35:18;2.97;;;1.90;;
12482;SDS011;6306;47.134;15.344;2023-01-13T14:37:44;2.23;;;1.63;;
12482;SDS011;6306;47.134;15.344;2023-01-13T14:45:23;8.80;;;2.80;;
12482;SDS011;6306;47.134;15.344;2023-01-13T14:47:50;7.53;;;3.10;;
12482;SDS011;6306;47.134;15.344;2023-01-13T14:50:20;10.90;;;3.20;;
12482;SDS011;6306;47.134;15.344;2023-01-13T14:52:52;13.93;;;3.03;;
12482;SDS011;6306;47.134;15.344;2023-01-13T14:58:15;5.13;;;2.53;;
12482;SDS011;6306;47.134;15.344;2023-01-13T15:00:39;7.60;;;3.57;;
12482;SDS011;6306;47.134;15.344;2023-01-13T15:03:06;16.40;;;7.40;;
12482;SDS011;6306;47.134;15.344;2023-01-13T15:05:33;15.63;;;8.53;;
12482;SDS011;6306;47.134;15.344;2023-01-13T15:12:53;12.90;;;5.87;;
12482;SDS011;6306;47.134;15.344;2023-01-13T15:17:45;17.93;;;6.67;;
12482;SDS011;6306;47.134;15.344;2023-01-13T15:20:11;13.50;;;5.60;;
12482;SDS011;6306;47.134;15.344;2023-01-13T15:22:38;20.70;;;7.97;;
12482;SDS011;6306;47.134;15.344;2023-01-13T15:25:04;13.20;;;6.93;;
12482;SDS011;6306;47.134;15.344;2023-01-13T15:27:30;16.00;;;7.60;;
12482;SDS011;6306;47.134;15.344;2023-01-13T15:29:56;21.40;;;9.53;;
12482;SDS011;6306;47.134;15.344;2023-01-13T15:32:22;22.53;;;8.50;;
12482;SDS011;6306;47.134;15.344;2023-01-13T15:34:48;14.03;;;5.97;;
12482;SDS011;6306;47.134;15.344;2023-01-13T15:37:16;17.93;;;7.40;;
12482;SDS011;6306;47.134;15.344;2023-01-13T15:39:43;11.60;;;6.87;;
12482;SDS011;6306;47.134;15.344;2023-01-13T15:42:10;13.97;;;6.60;;
12482;SDS011;6306;47.134;15.344;2023-01-13T15:44:56;11.53;;;5.70;;
12482;SDS011;6306;47.134;15.344;2023-01-13T15:47:41;13.33;;;5.67;;
12482;SDS011;6306;47.134;15.344;2023-01-13T15:50:12;5.80;;;3.40;;
12482;SDS011;6306;47.134;15.344;2023-01-13T15:52:38;6.33;;;3.60;;
12482;SDS011;6306;47.134;15.344;2023-01-13T15:55:04;9.50;;;4.93;;
12482;SDS011;6306;47.134;15.344;2023-01-13T15:57:31;11.73;;;5.30;;
12482;SDS011;6306;47.134;15.344;2023-01-13T16:00:07;10.80;;;5.20;;
12482;SDS011;6306;47.134;15.344;2023-01-13T16:02:36;11.73;;;6.33;;
12482;SDS011;6306;47.134;15.344;2023-01-13T16:05:03;14.30;;;5.27;;
12482;SDS011;6306;47.134;15.344;2023-01-13T16:07:29;7.67;;;4.63;;
12482;SDS011;6306;47.134;15.344;2023-01-13T16:09:55;14.33;;;5.80;;
12482;SDS011;6306;47.134;15.344;2023-01-13T16:12:21;5.87;;;4.13;;
12482;SDS011;6306;47.134;15.344;2023-01-13T16:14:47;11.10;;;5.70;;
12482;SDS011;6306;47.134;15.344;2023-01-13T16:17:17;6.90;;;4.93;;
12482;SDS011;6306;47.134;15.344;2023-01-13T16:19:44;7.10;;;4.90;;
12482;SDS011;6306;47.134;15.344;2023-01-13T16:22:10;14.73;;;4.50;;
12482;SDS011;6306;47.134;15.344;2023-01-13T16:24:37;6.43;;;4.30;;
12482;SDS011;6306;47.134;15.344;2023-01-13T16:27:16;10.77;;;4.63;;
12482;SDS011;6306;47.134;15.344;2023-01-13T16:29:42;7.03;;;4.77;;
12482;SDS011;6306;47.134;15.344;2023-01-13T16:32:09;12.17;;;5.50;;
12482;SDS011;6306;47.134;15.344;2023-01-13T16:34:35;14.03;;;8.50;;
12482;SDS011;6306;47.134;15.344;2023-01-13T16:37:01;19.40;;;8.60;;
12482;SDS011;6306;47.134;15.344;2023-01-13T16:39:27;13.87;;;7.73;;
12482;SDS011;6306;47.134;15.344;2023-01-13T16:41:53;20.43;;;11.53;;
12482;SDS011;6306;47.134;15.344;2023-01-13T16:44:20;42.03;;;17.10;;
12482;SDS011;6306;47.134;15.344;2023-01-13T16:46:46;39.30;;;16.23;;
12482;SDS011;6306;47.134;15.344;2023-01-13T16:49:13;23.03;;;11.30;;
12482;SDS011;6306;47.134;15.344;2023-01-13T16:51:39;22.00;;;11.93;;
12482;SDS011;6306;47.134;15.344;2023-01-13T16:54:05;21.20;;;10.20;;
12482;SDS011;6306;47.134;15.344;2023-01-13T16:56:32;15.90;;;9.33;;
12482;SDS011;6306;47.134;15.344;2023-01-13T16:59:03;24.90;;;12.57;;
12482;SDS011;6306;47.134;15.344;2023-01-13T17:01:30;21.33;;;10.10;;
12482;SDS011;6306;47.134;15.344;2023-01-13T17:03:57;19.80;;;8.77;;
12482;SDS011;6306;47.134;15.344;2023-01-13T17:06:40;11.20;;;6.93;;
12482;SDS011;6306;47.134;15.344;2023-01-13T17:09:16;19.63;;;6.80;;
12482;SDS011;6306;47.134;15.344;2023-01-13T17:11:43;13.40;;;5.93;;
12482;SDS011;6306;47.134;15.344;2023-01-13T17:14:10;18.60;;;7.83;;
12482;SDS011;6306;47.134;15.344;2023-01-13T17:16:36;20.17;;;8.50;;
12482;SDS011;6306;47.134;15.344;2023-01-13T17:19:02;20.30;;;10.97;;
12482;SDS011;6306;47.134;15.344;2023-01-13T17:21:28;21.80;;;10.27;;
12482;SDS011;6306;47.134;15.344;2023-01-13T17:23:54;20.37;;;10.80;;
12482;SDS011;6306;47.134;15.344;2023-01-13T17:28:52;15.40;;;9.37;;